Santa Maria Pub,Capt G Allan Hancock Field Santa Maria US
ICAO: KSMX
IATA: SMX
Category: Medium
Scheduled Services: Yes

Elevation: 261 ft
TransAlt. 18000 ft.

Airport Communications:
SANTA BARB APP/DEP:124.15
ATIS:121.15
CTAF:118.3
GND:121.9
HAWTHORNE RDO:111
TWR:118.3
UNICOM:122.95

KSMX Zoom In..

If you have problems with the map follow the link
https://www.worldairports.se/pages/airport.php?
ICAO=KSMX

Runways:

(A) RW 02 length 5194 ft width 75 ft
---- / hdg 22

(B) RW 12 length 8004 ft width 150 ft
ILS 108.90 / hdg 121

(C) RW 20 length 5194 ft width 75 ft
---- / hdg 202

(D) RW 30 length 8004 ft width 150 ft
---- / hdg 301

Location; KSMX
Day. 29 / Time. 10.51 Zulu
* Altimeter: 30.18
* Temperature: 10° c. 50°f.
* Wind from: 340° Speed 09 kn.
Dewpoint: 08° c.
Visibility: 10 Statute Miles.
Clouds: Clear (automated report).

KSMX 291051Z AUTO 34009KT 10SM CLR 10/08 A3018 RMK AO2 SLP222 T01000078 TSNO


Wind From 340°
Speed 09 kn.

 
 
jpsmedia worldairports.se 2020   terms of use